FBSK/GBE METAR and TAF weather

Enter ICAO airport designator
Station Type Date Time Source
FBSK METAR 2018/09/21 23:00 UTC NOAA

FBSK 212300Z 13001KT CAVOK 17/10 Q1020 NOSIG


Station Type Date Time Source
FBSK Decoded METAR 2018/09/21 23:00 UTC NOAA

Seretse Khama International Airport, Botswana (FBSK) 24-13S 025-55E 1005M
Sep 21, 2018 - 07:00 PM EDT / 2018.09.21 2300 UTC
Wind: from the SE (130 degrees) at 1 MPH (1 KT):0
Visibility: greater than 7 mile(s):0
Temperature: 62 F (17 C)
Dew Point: 50 F (10 C)
Relative Humidity: 63%
Pressure (altimeter): 30.12 in. Hg (1020 hPa)
ob: FBSK 212300Z 13001KT CAVOK 17/10 Q1020 NOSIG
cycle: 23

Station Type Date Time Source
FBSK TAF 2018/09/21 18:18 UTC NOAA

TAF TAF FBSK 211500Z 2118/2224 08010KT CAVOK


Example: see airport list